sensor_id;sensor_type;location;lat;lon;timestamp;temperature;humidity
22698;DHT22;11516;51.612;7.510;2023-02-18T00:01:17;10.30;99.90
22698;DHT22;11516;51.612;7.510;2023-02-18T00:03:44;10.30;99.90
22698;DHT22;11516;51.612;7.510;2023-02-18T00:06:14;10.30;99.90
22698;DHT22;11516;51.612;7.510;2023-02-18T00:08:42;10.40;99.90
22698;DHT22;11516;51.612;7.510;2023-02-18T00:11:08;10.40;99.90
22698;DHT22;11516;51.612;7.510;2023-02-18T00:13:34;10.40;99.90
22698;DHT22;11516;51.612;7.510;2023-02-18T00:16:04;10.40;99.90
22698;DHT22;11516;51.612;7.510;2023-02-18T00:18:29;10.40;99.90
22698;DHT22;11516;51.612;7.510;2023-02-18T00:20:55;10.40;99.90
22698;DHT22;11516;51.612;7.510;2023-02-18T00:23:20;10.40;99.90
22698;DHT22;11516;51.612;7.510;2023-02-18T00:25:46;10.40;99.90
22698;DHT22;11516;51.612;7.510;2023-02-18T00:28:12;10.40;99.90
22698;DHT22;11516;51.612;7.510;2023-02-18T00:30:41;10.40;99.90
22698;DHT22;11516;51.612;7.510;2023-02-18T00:33:07;10.40;99.90
22698;DHT22;11516;51.612;7.510;2023-02-18T00:35:32;10.40;99.90
22698;DHT22;11516;51.612;7.510;2023-02-18T00:37:57;10.40;99.90
22698;DHT22;11516;51.612;7.510;2023-02-18T00:40:23;10.40;99.90
22698;DHT22;11516;51.612;7.510;2023-02-18T00:42:48;10.50;99.90
22698;DHT22;11516;51.612;7.510;2023-02-18T00:45:14;10.40;99.90
22698;DHT22;11516;51.612;7.510;2023-02-18T00:47:40;10.50;99.90
22698;DHT22;11516;51.612;7.510;2023-02-18T00:50:06;10.40;99.90
22698;DHT22;11516;51.612;7.510;2023-02-18T00:52:32;10.50;99.90
22698;DHT22;11516;51.612;7.510;2023-02-18T00:54:57;10.50;99.90
22698;DHT22;11516;51.612;7.510;2023-02-18T00:57:23;10.50;99.90
22698;DHT22;11516;51.612;7.510;2023-02-18T00:59:48;10.50;99.90
22698;DHT22;11516;51.612;7.510;2023-02-18T01:02:14;10.50;99.90
22698;DHT22;11516;51.612;7.510;2023-02-18T01:04:39;10.50;99.90
22698;DHT22;11516;51.612;7.510;2023-02-18T01:07:05;10.50;99.90
22698;DHT22;11516;51.612;7.510;2023-02-18T01:09:30;10.40;99.90
22698;DHT22;11516;51.612;7.510;2023-02-18T01:11:56;10.40;99.90
22698;DHT22;11516;51.612;7.510;2023-02-18T01:14:21;10.40;99.90
22698;DHT22;11516;51.612;7.510;2023-02-18T01:16:47;10.40;99.90
22698;DHT22;11516;51.612;7.510;2023-02-18T01:19:12;10.40;99.90
22698;DHT22;11516;51.612;7.510;2023-02-18T01:21:38;10.40;99.90
22698;DHT22;11516;51.612;7.510;2023-02-18T01:24:04;10.50;99.90
22698;DHT22;11516;51.612;7.510;2023-02-18T01:26:29;10.40;99.90
22698;DHT22;11516;51.612;7.510;2023-02-18T01:28:55;10.40;99.90
22698;DHT22;11516;51.612;7.510;2023-02-18T01:31:20;10.40;99.90
22698;DHT22;11516;51.612;7.510;2023-02-18T01:33:46;10.40;99.90
22698;DHT22;11516;51.612;7.510;2023-02-18T01:36:11;10.40;99.90
22698;DHT22;11516;51.612;7.510;2023-02-18T01:38:37;10.50;99.90
22698;DHT22;11516;51.612;7.510;2023-02-18T01:41:03;10.50;99.90
22698;DHT22;11516;51.612;7.510;2023-02-18T01:43:28;10.40;99.90
22698;DHT22;11516;51.612;7.510;2023-02-18T01:46:05;10.40;99.90
22698;DHT22;11516;51.612;7.510;2023-02-18T01:48:46;10.40;99.90
22698;DHT22;11516;51.612;7.510;2023-02-18T01:51:36;10.40;99.90
22698;DHT22;11516;51.612;7.510;2023-02-18T01:54:13;10.40;99.90
22698;DHT22;11516;51.612;7.510;2023-02-18T01:57:02;10.40;99.90
22698;DHT22;11516;51.612;7.510;2023-02-18T01:59:36;10.40;99.90
22698;DHT22;11516;51.612;7.510;2023-02-18T02:02:03;10.40;99.90
22698;DHT22;11516;51.612;7.510;2023-02-18T02:04:29;10.40;99.90
22698;DHT22;11516;51.612;7.510;2023-02-18T02:06:55;10.40;99.90
22698;DHT22;11516;51.612;7.510;2023-02-18T02:09:22;10.40;99.90
22698;DHT22;11516;51.612;7.510;2023-02-18T02:12:21;10.40;99.90
22698;DHT22;11516;51.612;7.510;2023-02-18T02:18:06;10.40;99.90
22698;DHT22;11516;51.612;7.510;2023-02-18T02:20:51;10.50;99.90
22698;DHT22;11516;51.612;7.510;2023-02-18T02:23:56;10.40;99.90
22698;DHT22;11516;51.612;7.510;2023-02-18T02:29:58;10.40;99.90
22698;DHT22;11516;51.612;7.510;2023-02-18T02:35:29;10.40;99.90
22698;DHT22;11516;51.612;7.510;2023-02-18T02:38:13;10.40;99.90
22698;DHT22;11516;51.612;7.510;2023-02-18T02:41:01;10.40;99.90
22698;DHT22;11516;51.612;7.510;2023-02-18T02:46:27;10.40;99.90
22698;DHT22;11516;51.612;7.510;2023-02-18T02:49:11;10.40;99.90
22698;DHT22;11516;51.612;7.510;2023-02-18T02:52:11;10.40;99.90
22698;DHT22;11516;51.612;7.510;2023-02-18T02:54:38;10.40;99.90
22698;DHT22;11516;51.612;7.510;2023-02-18T02:57:07;10.40;99.90
22698;DHT22;11516;51.612;7.510;2023-02-18T02:59:36;10.40;99.90
22698;DHT22;11516;51.612;7.510;2023-02-18T03:04:47;10.40;99.90
22698;DHT22;11516;51.612;7.510;2023-02-18T03:10:25;10.40;99.90
22698;DHT22;11516;51.612;7.510;2023-02-18T03:15:55;10.40;99.90
22698;DHT22;11516;51.612;7.510;2023-02-18T03:21:07;10.40;99.90
22698;DHT22;11516;51.612;7.510;2023-02-18T03:23:37;10.40;99.90
22698;DHT22;11516;51.612;7.510;2023-02-18T03:26:07;10.40;99.90
22698;DHT22;11516;51.612;7.510;2023-02-18T03:28:34;10.40;99.90
22698;DHT22;11516;51.612;7.510;2023-02-18T03:31:06;10.40;99.90
22698;DHT22;11516;51.612;7.510;2023-02-18T03:33:43;10.30;99.90
22698;DHT22;11516;51.612;7.510;2023-02-18T03:36:11;10.40;99.90
22698;DHT22;11516;51.612;7.510;2023-02-18T03:38:43;10.30;99.90
22698;DHT22;11516;51.612;7.510;2023-02-18T03:41:09;10.30;99.90
22698;DHT22;11516;51.612;7.510;2023-02-18T03:43:35;10.30;99.90
22698;DHT22;11516;51.612;7.510;2023-02-18T03:46:01;10.30;99.90
22698;DHT22;11516;51.612;7.510;2023-02-18T03:48:27;10.30;99.90
22698;DHT22;11516;51.612;7.510;2023-02-18T03:50:53;10.30;99.90
22698;DHT22;11516;51.612;7.510;2023-02-18T03:53:19;10.40;99.90
22698;DHT22;11516;51.612;7.510;2023-02-18T03:55:44;10.30;99.90
22698;DHT22;11516;51.612;7.510;2023-02-18T03:58:09;10.30;99.90
22698;DHT22;11516;51.612;7.510;2023-02-18T04:00:35;10.40;99.90
22698;DHT22;11516;51.612;7.510;2023-02-18T04:03:00;10.30;99.90
22698;DHT22;11516;51.612;7.510;2023-02-18T04:05:26;10.30;99.90
22698;DHT22;11516;51.612;7.510;2023-02-18T04:07:52;10.30;99.90
22698;DHT22;11516;51.612;7.510;2023-02-18T04:10:17;10.30;99.90
22698;DHT22;11516;51.612;7.510;2023-02-18T04:12:43;10.30;99.90
22698;DHT22;11516;51.612;7.510;2023-02-18T04:15:08;10.30;99.90
22698;DHT22;11516;51.612;7.510;2023-02-18T04:17:34;10.30;99.90
22698;DHT22;11516;51.612;7.510;2023-02-18T04:19:59;10.30;99.90
22698;DHT22;11516;51.612;7.510;2023-02-18T04:22:25;10.30;99.90
22698;DHT22;11516;51.612;7.510;2023-02-18T04:24:51;10.30;99.90
22698;DHT22;11516;51.612;7.510;2023-02-18T04:27:16;10.30;99.90
22698;DHT22;11516;51.612;7.510;2023-02-18T04:29:42;10.40;99.90
22698;DHT22;11516;51.612;7.510;2023-02-18T04:32:07;10.30;99.90
22698;DHT22;11516;51.612;7.510;2023-02-18T04:34:33;10.30;99.90
22698;DHT22;11516;51.612;7.510;2023-02-18T04:36:58;10.40;99.90
22698;DHT22;11516;51.612;7.510;2023-02-18T04:39:24;10.40;99.90
22698;DHT22;11516;51.612;7.510;2023-02-18T04:41:49;10.40;99.90
22698;DHT22;11516;51.612;7.510;2023-02-18T04:44:15;10.40;99.90
22698;DHT22;11516;51.612;7.510;2023-02-18T04:46:40;10.40;99.90
22698;DHT22;11516;51.612;7.510;2023-02-18T04:49:06;10.40;99.90
22698;DHT22;11516;51.612;7.510;2023-02-18T04:51:31;10.40;99.90
22698;DHT22;11516;51.612;7.510;2023-02-18T04:53:57;10.40;99.90
22698;DHT22;11516;51.612;7.510;2023-02-18T04:56:22;10.40;99.90
22698;DHT22;11516;51.612;7.510;2023-02-18T04:58:48;10.40;99.90
22698;DHT22;11516;51.612;7.510;2023-02-18T05:01:13;10.40;99.90
22698;DHT22;11516;51.612;7.510;2023-02-18T05:03:39;10.40;99.90
22698;DHT22;11516;51.612;7.510;2023-02-18T05:06:05;10.40;99.90
22698;DHT22;11516;51.612;7.510;2023-02-18T05:08:30;10.40;99.90
22698;DHT22;11516;51.612;7.510;2023-02-18T05:10:56;10.40;99.90
22698;DHT22;11516;51.612;7.510;2023-02-18T05:13:21;10.40;99.90
22698;DHT22;11516;51.612;7.510;2023-02-18T05:15:47;10.40;99.90
22698;DHT22;11516;51.612;7.510;2023-02-18T05:18:13;10.40;99.90
22698;DHT22;11516;51.612;7.510;2023-02-18T05:20:38;10.40;99.90
22698;DHT22;11516;51.612;7.510;2023-02-18T05:23:04;10.40;99.90
22698;DHT22;11516;51.612;7.510;2023-02-18T05:25:29;10.40;99.90
22698;DHT22;11516;51.612;7.510;2023-02-18T05:27:55;10.40;99.90
22698;DHT22;11516;51.612;7.510;2023-02-18T05:30:20;10.50;99.90
22698;DHT22;11516;51.612;7.510;2023-02-18T05:32:46;10.40;99.90
22698;DHT22;11516;51.612;7.510;2023-02-18T05:35:11;10.40;99.90
22698;DHT22;11516;51.612;7.510;2023-02-18T05:37:38;10.40;99.90
22698;DHT22;11516;51.612;7.510;2023-02-18T05:40:04;10.40;99.90
22698;DHT22;11516;51.612;7.510;2023-02-18T05:42:30;10.40;99.90
22698;DHT22;11516;51.612;7.510;2023-02-18T05:44:57;10.30;99.90
22698;DHT22;11516;51.612;7.510;2023-02-18T05:47:23;10.30;99.90
22698;DHT22;11516;51.612;7.510;2023-02-18T05:49:48;10.30;99.90
22698;DHT22;11516;51.612;7.510;2023-02-18T05:52:15;10.30;99.90
22698;DHT22;11516;51.612;7.510;2023-02-18T05:54:41;10.20;99.90
22698;DHT22;11516;51.612;7.510;2023-02-18T05:57:07;10.30;99.90
22698;DHT22;11516;51.612;7.510;2023-02-18T05:59:32;10.30;99.90
22698;DHT22;11516;51.612;7.510;2023-02-18T06:01:58;10.30;99.90
22698;DHT22;11516;51.612;7.510;2023-02-18T06:04:23;10.30;99.90
22698;DHT22;11516;51.612;7.510;2023-02-18T06:06:49;10.30;99.90
22698;DHT22;11516;51.612;7.510;2023-02-18T06:09:15;10.30;99.90
22698;DHT22;11516;51.612;7.510;2023-02-18T06:11:40;10.30;99.90
22698;DHT22;11516;51.612;7.510;2023-02-18T06:14:06;10.30;99.90
22698;DHT22;11516;51.612;7.510;2023-02-18T06:16:32;10.30;99.90
22698;DHT22;11516;51.612;7.510;2023-02-18T06:18:58;10.30;99.90
22698;DHT22;11516;51.612;7.510;2023-02-18T06:21:24;10.30;99.90
22698;DHT22;11516;51.612;7.510;2023-02-18T06:23:50;10.20;99.90
22698;DHT22;11516;51.612;7.510;2023-02-18T06:26:15;10.20;99.90
22698;DHT22;11516;51.612;7.510;2023-02-18T06:28:40;10.30;99.90
22698;DHT22;11516;51.612;7.510;2023-02-18T06:31:06;10.30;99.90
22698;DHT22;11516;51.612;7.510;2023-02-18T06:33:31;10.30;99.90
22698;DHT22;11516;51.612;7.510;2023-02-18T06:36:00;10.30;99.90
22698;DHT22;11516;51.612;7.510;2023-02-18T06:38:26;10.20;99.90
22698;DHT22;11516;51.612;7.510;2023-02-18T06:40:52;10.20;99.90
22698;DHT22;11516;51.612;7.510;2023-02-18T06:43:19;10.30;99.90
22698;DHT22;11516;51.612;7.510;2023-02-18T06:45:44;10.20;99.90
22698;DHT22;11516;51.612;7.510;2023-02-18T06:48:10;10.30;99.90
22698;DHT22;11516;51.612;7.510;2023-02-18T06:50:36;10.30;99.90
22698;DHT22;11516;51.612;7.510;2023-02-18T06:53:01;10.20;99.90
22698;DHT22;11516;51.612;7.510;2023-02-18T06:55:27;10.30;99.90
22698;DHT22;11516;51.612;7.510;2023-02-18T06:57:52;10.20;99.90
22698;DHT22;11516;51.612;7.510;2023-02-18T07:00:18;10.20;99.90
22698;DHT22;11516;51.612;7.510;2023-02-18T07:02:44;10.20;99.90
22698;DHT22;11516;51.612;7.510;2023-02-18T07:05:09;10.20;99.90
22698;DHT22;11516;51.612;7.510;2023-02-18T07:07:35;10.20;99.90
22698;DHT22;11516;51.612;7.510;2023-02-18T07:10:01;10.20;99.90
22698;DHT22;11516;51.612;7.510;2023-02-18T07:12:26;10.20;99.90
22698;DHT22;11516;51.612;7.510;2023-02-18T07:14:52;10.20;99.90
22698;DHT22;11516;51.612;7.510;2023-02-18T07:17:18;10.20;99.90
22698;DHT22;11516;51.612;7.510;2023-02-18T07:19:43;10.20;99.90
22698;DHT22;11516;51.612;7.510;2023-02-18T07:22:09;10.20;99.90
22698;DHT22;11516;51.612;7.510;2023-02-18T07:24:34;10.20;99.90
22698;DHT22;11516;51.612;7.510;2023-02-18T07:27:00;10.20;99.90
22698;DHT22;11516;51.612;7.510;2023-02-18T07:29:25;10.20;99.90
22698;DHT22;11516;51.612;7.510;2023-02-18T07:31:51;10.20;99.90
22698;DHT22;11516;51.612;7.510;2023-02-18T07:34:16;10.20;99.90
22698;DHT22;11516;51.612;7.510;2023-02-18T07:36:42;10.20;99.90
22698;DHT22;11516;51.612;7.510;2023-02-18T07:39:07;10.20;99.90
22698;DHT22;11516;51.612;7.510;2023-02-18T07:41:33;10.20;99.90
22698;DHT22;11516;51.612;7.510;2023-02-18T07:43:58;10.20;99.90
22698;DHT22;11516;51.612;7.510;2023-02-18T07:46:24;10.20;99.90
22698;DHT22;11516;51.612;7.510;2023-02-18T07:48:50;10.10;99.90
22698;DHT22;11516;51.612;7.510;2023-02-18T07:51:15;10.10;99.90
22698;DHT22;11516;51.612;7.510;2023-02-18T07:53:41;10.20;99.90
22698;DHT22;11516;51.612;7.510;2023-02-18T07:56:06;10.10;99.90
22698;DHT22;11516;51.612;7.510;2023-02-18T07:58:35;10.10;99.90
22698;DHT22;11516;51.612;7.510;2023-02-18T08:01:05;10.10;99.90
22698;DHT22;11516;51.612;7.510;2023-02-18T08:03:32;10.10;99.90
22698;DHT22;11516;51.612;7.510;2023-02-18T08:05:58;10.10;99.90
22698;DHT22;11516;51.612;7.510;2023-02-18T08:08:26;10.10;99.90
22698;DHT22;11516;51.612;7.510;2023-02-18T08:10:54;10.10;99.90
22698;DHT22;11516;51.612;7.510;2023-02-18T08:13:20;10.10;99.90
22698;DHT22;11516;51.612;7.510;2023-02-18T08:15:46;10.10;99.90
22698;DHT22;11516;51.612;7.510;2023-02-18T08:18:20;10.10;99.90
22698;DHT22;11516;51.612;7.510;2023-02-18T08:20:47;10.10;99.90
22698;DHT22;11516;51.612;7.510;2023-02-18T08:23:14;10.10;99.90
22698;DHT22;11516;51.612;7.510;2023-02-18T08:25:44;10.10;99.90
22698;DHT22;11516;51.612;7.510;2023-02-18T08:28:10;10.10;99.90
22698;DHT22;11516;51.612;7.510;2023-02-18T08:30:35;10.10;99.90
22698;DHT22;11516;51.612;7.510;2023-02-18T08:33:01;10.10;99.90
22698;DHT22;11516;51.612;7.510;2023-02-18T08:35:27;10.10;99.90
22698;DHT22;11516;51.612;7.510;2023-02-18T08:37:52;10.10;99.90
22698;DHT22;11516;51.612;7.510;2023-02-18T08:40:18;10.10;99.90
22698;DHT22;11516;51.612;7.510;2023-02-18T08:42:43;10.10;99.90
22698;DHT22;11516;51.612;7.510;2023-02-18T08:45:09;10.10;99.90
22698;DHT22;11516;51.612;7.510;2023-02-18T08:47:34;10.10;99.90
22698;DHT22;11516;51.612;7.510;2023-02-18T08:50:00;10.10;99.90
22698;DHT22;11516;51.612;7.510;2023-02-18T08:52:27;10.10;99.90
22698;DHT22;11516;51.612;7.510;2023-02-18T08:54:52;10.00;99.90
22698;DHT22;11516;51.612;7.510;2023-02-18T08:57:18;10.00;99.90
22698;DHT22;11516;51.612;7.510;2023-02-18T08:59:43;10.00;99.90
22698;DHT22;11516;51.612;7.510;2023-02-18T09:02:12;10.00;99.90
22698;DHT22;11516;51.612;7.510;2023-02-18T09:04:38;9.90;99.90
22698;DHT22;11516;51.612;7.510;2023-02-18T09:07:03;10.00;99.90
22698;DHT22;11516;51.612;7.510;2023-02-18T09:09:29;10.00;99.90
22698;DHT22;11516;51.612;7.510;2023-02-18T09:11:54;10.00;99.90
22698;DHT22;11516;51.612;7.510;2023-02-18T09:14:20;9.90;99.90
22698;DHT22;11516;51.612;7.510;2023-02-18T09:16:45;9.90;99.90
22698;DHT22;11516;51.612;7.510;2023-02-18T09:19:11;9.80;99.90
22698;DHT22;11516;51.612;7.510;2023-02-18T09:21:36;9.80;99.90
22698;DHT22;11516;51.612;7.510;2023-02-18T09:24:02;9.80;99.90
22698;DHT22;11516;51.612;7.510;2023-02-18T09:26:28;9.80;99.90
22698;DHT22;11516;51.612;7.510;2023-02-18T09:28:55;9.80;99.90
22698;DHT22;11516;51.612;7.510;2023-02-18T09:31:39;9.80;99.90
22698;DHT22;11516;51.612;7.510;2023-02-18T09:34:05;9.70;99.90
22698;DHT22;11516;51.612;7.510;2023-02-18T09:36:31;9.60;99.90
22698;DHT22;11516;51.612;7.510;2023-02-18T09:38:57;9.60;99.90
22698;DHT22;11516;51.612;7.510;2023-02-18T09:41:46;9.60;99.90
22698;DHT22;11516;51.612;7.510;2023-02-18T09:46:49;9.60;99.90
22698;DHT22;11516;51.612;7.510;2023-02-18T09:49:19;9.50;99.90
22698;DHT22;11516;51.612;7.510;2023-02-18T09:51:45;9.50;99.90
22698;DHT22;11516;51.612;7.510;2023-02-18T09:54:15;9.50;99.90
22698;DHT22;11516;51.612;7.510;2023-02-18T09:56:42;9.50;99.90
22698;DHT22;11516;51.612;7.510;2023-02-18T09:59:21;9.50;99.90
22698;DHT22;11516;51.612;7.510;2023-02-18T10:01:50;9.50;99.90
22698;DHT22;11516;51.612;7.510;2023-02-18T10:04:39;9.50;99.90
22698;DHT22;11516;51.612;7.510;2023-02-18T10:07:05;9.40;99.90
22698;DHT22;11516;51.612;7.510;2023-02-18T10:09:34;9.50;99.90
22698;DHT22;11516;51.612;7.510;2023-02-18T10:12:12;9.40;99.90
22698;DHT22;11516;51.612;7.510;2023-02-18T10:14:39;9.40;99.90
22698;DHT22;11516;51.612;7.510;2023-02-18T10:17:05;9.30;99.90
22698;DHT22;11516;51.612;7.510;2023-02-18T10:19:37;9.30;99.90
22698;DHT22;11516;51.612;7.510;2023-02-18T10:22:05;9.40;99.90
22698;DHT22;11516;51.612;7.510;2023-02-18T10:24:34;9.40;99.90
22698;DHT22;11516;51.612;7.510;2023-02-18T10:27:04;9.40;99.90
22698;DHT22;11516;51.612;7.510;2023-02-18T10:29:31;9.40;99.90
22698;DHT22;11516;51.612;7.510;2023-02-18T10:32:21;9.50;99.90
22698;DHT22;11516;51.612;7.510;2023-02-18T10:35:49;9.50;99.90
22698;DHT22;11516;51.612;7.510;2023-02-18T10:40:50;9.50;99.90
22698;DHT22;11516;51.612;7.510;2023-02-18T10:43:23;9.50;99.90
22698;DHT22;11516;51.612;7.510;2023-02-18T10:46:18;9.50;99.90
22698;DHT22;11516;51.612;7.510;2023-02-18T10:51:30;9.40;99.90
22698;DHT22;11516;51.612;7.510;2023-02-18T10:53:56;9.50;99.90
22698;DHT22;11516;51.612;7.510;2023-02-18T11:01:44;9.50;99.90
22698;DHT22;11516;51.612;7.510;2023-02-18T11:04:17;9.50;99.90
22698;DHT22;11516;51.612;7.510;2023-02-18T11:06:47;9.40;99.90
22698;DHT22;11516;51.612;7.510;2023-02-18T11:09:25;9.50;99.90
22698;DHT22;11516;51.612;7.510;2023-02-18T11:11:59;9.40;99.90
22698;DHT22;11516;51.612;7.510;2023-02-18T11:14:44;9.40;99.90
22698;DHT22;11516;51.612;7.510;2023-02-18T11:17:26;9.40;99.90
22698;DHT22;11516;51.612;7.510;2023-02-18T11:19:55;9.50;99.90
22698;DHT22;11516;51.612;7.510;2023-02-18T11:22:33;9.40;99.90
22698;DHT22;11516;51.612;7.510;2023-02-18T11:25:05;9.40;99.90
22698;DHT22;11516;51.612;7.510;2023-02-18T11:27:44;9.40;99.90
22698;DHT22;11516;51.612;7.510;2023-02-18T11:30:36;9.40;99.90
22698;DHT22;11516;51.612;7.510;2023-02-18T11:33:07;9.40;99.90
22698;DHT22;11516;51.612;7.510;2023-02-18T11:35:34;9.50;99.90
22698;DHT22;11516;51.612;7.510;2023-02-18T11:38:01;9.40;99.90
22698;DHT22;11516;51.612;7.510;2023-02-18T11:40:31;9.40;99.90
22698;DHT22;11516;51.612;7.510;2023-02-18T11:43:27;9.40;99.90
22698;DHT22;11516;51.612;7.510;2023-02-18T11:46:17;9.40;99.90
22698;DHT22;11516;51.612;7.510;2023-02-18T11:48:43;9.40;99.90
22698;DHT22;11516;51.612;7.510;2023-02-18T11:54:03;9.50;99.90
22698;DHT22;11516;51.612;7.510;2023-02-18T11:56:34;9.50;99.90
22698;DHT22;11516;51.612;7.510;2023-02-18T11:59:01;9.40;99.90
22698;DHT22;11516;51.612;7.510;2023-02-18T12:01:46;9.40;99.90
22698;DHT22;11516;51.612;7.510;2023-02-18T12:04:32;9.40;99.90
22698;DHT22;11516;51.612;7.510;2023-02-18T12:12:05;9.40;99.90
22698;DHT22;11516;51.612;7.510;2023-02-18T12:14:35;9.40;99.90
22698;DHT22;11516;51.612;7.510;2023-02-18T12:17:25;9.50;99.90
22698;DHT22;11516;51.612;7.510;2023-02-18T12:20:33;9.50;99.90
22698;DHT22;11516;51.612;7.510;2023-02-18T12:23:42;9.50;99.90
22698;DHT22;11516;51.612;7.510;2023-02-18T12:38:20;9.50;99.90
22698;DHT22;11516;51.612;7.510;2023-02-18T12:41:12;9.50;99.90
22698;DHT22;11516;51.612;7.510;2023-02-18T12:49:02;9.50;99.90
22698;DHT22;11516;51.612;7.510;2023-02-18T12:52:01;9.50;99.90
22698;DHT22;11516;51.612;7.510;2023-02-18T12:57:42;9.50;99.90
22698;DHT22;11516;51.612;7.510;2023-02-18T13:10:41;9.70;99.90
22698;DHT22;11516;51.612;7.510;2023-02-18T13:13:16;9.70;99.90
22698;DHT22;11516;51.612;7.510;2023-02-18T13:16:08;9.70;99.90
22698;DHT22;11516;51.612;7.510;2023-02-18T13:18:37;9.70;99.90
22698;DHT22;11516;51.612;7.510;2023-02-18T13:21:08;9.70;99.90
22698;DHT22;11516;51.612;7.510;2023-02-18T13:23:46;9.70;99.90
22698;DHT22;11516;51.612;7.510;2023-02-18T13:26:13;9.70;99.90
22698;DHT22;11516;51.612;7.510;2023-02-18T13:39:48;9.70;99.90
22698;DHT22;11516;51.612;7.510;2023-02-18T13:47:42;9.80;99.90
22698;DHT22;11516;51.612;7.510;2023-02-18T13:55:40;9.80;99.90
22698;DHT22;11516;51.612;7.510;2023-02-18T13:58:26;9.80;99.90
22698;DHT22;11516;51.612;7.510;2023-02-18T14:01:03;9.80;99.90
22698;DHT22;11516;51.612;7.510;2023-02-18T14:05:58;9.80;99.90
22698;DHT22;11516;51.612;7.510;2023-02-18T14:08:33;9.80;99.90
22698;DHT22;11516;51.612;7.510;2023-02-18T14:11:23;9.90;99.90
22698;DHT22;11516;51.612;7.510;2023-02-18T14:16:25;9.80;99.90
22698;DHT22;11516;51.612;7.510;2023-02-18T14:18:56;9.80;99.90
22698;DHT22;11516;51.612;7.510;2023-02-18T14:21:35;9.80;99.90
22698;DHT22;11516;51.612;7.510;2023-02-18T14:24:03;9.80;99.90
22698;DHT22;11516;51.612;7.510;2023-02-18T14:26:36;9.90;99.90
22698;DHT22;11516;51.612;7.510;2023-02-18T14:29:11;9.80;99.90
22698;DHT22;11516;51.612;7.510;2023-02-18T14:31:42;9.90;99.90
22698;DHT22;11516;51.612;7.510;2023-02-18T14:40:18;9.90;99.90
22698;DHT22;11516;51.612;7.510;2023-02-18T14:46:04;10.00;99.90
22698;DHT22;11516;51.612;7.510;2023-02-18T14:48:39;9.90;99.90
22698;DHT22;11516;51.612;7.510;2023-02-18T14:51:06;9.90;99.90
22698;DHT22;11516;51.612;7.510;2023-02-18T14:53:39;10.00;99.90
22698;DHT22;11516;51.612;7.510;2023-02-18T14:56:08;10.00;99.90
22698;DHT22;11516;51.612;7.510;2023-02-18T14:58:38;10.00;99.90
22698;DHT22;11516;51.612;7.510;2023-02-18T15:01:15;10.00;99.90
22698;DHT22;11516;51.612;7.510;2023-02-18T15:03:41;10.00;99.90
22698;DHT22;11516;51.612;7.510;2023-02-18T15:06:34;10.00;99.90
22698;DHT22;11516;51.612;7.510;2023-02-18T15:09:02;10.10;99.90
22698;DHT22;11516;51.612;7.510;2023-02-18T15:11:42;10.20;99.90
22698;DHT22;11516;51.612;7.510;2023-02-18T15:14:18;10.10;99.90
22698;DHT22;11516;51.612;7.510;2023-02-18T15:16:45;10.10;99.90
22698;DHT22;11516;51.612;7.510;2023-02-18T15:19:15;10.20;99.90
22698;DHT22;11516;51.612;7.510;2023-02-18T15:21:46;10.20;99.90
22698;DHT22;11516;51.612;7.510;2023-02-18T15:26:48;10.20;99.90
22698;DHT22;11516;51.612;7.510;2023-02-18T15:29:21;10.20;99.90
22698;DHT22;11516;51.612;7.510;2023-02-18T15:35:16;10.30;99.90
22698;DHT22;11516;51.612;7.510;2023-02-18T15:37:49;10.20;99.90
22698;DHT22;11516;51.612;7.510;2023-02-18T15:40:17;10.20;99.90
22698;DHT22;11516;51.612;7.510;2023-02-18T15:42:47;10.20;99.90
22698;DHT22;11516;51.612;7.510;2023-02-18T15:45:20;10.20;99.90
22698;DHT22;11516;51.612;7.510;2023-02-18T15:47:48;10.20;99.90
22698;DHT22;11516;51.612;7.510;2023-02-18T15:52:46;10.30;99.90
22698;DHT22;11516;51.612;7.510;2023-02-18T15:55:24;10.20;99.90
22698;DHT22;11516;51.612;7.510;2023-02-18T15:57:52;10.20;99.90
22698;DHT22;11516;51.612;7.510;2023-02-18T16:00:28;10.20;99.90
22698;DHT22;11516;51.612;7.510;2023-02-18T16:03:43;10.30;99.90
22698;DHT22;11516;51.612;7.510;2023-02-18T16:05:42;10.20;99.90
22698;DHT22;11516;51.612;7.510;2023-02-18T16:08:22;10.30;99.90
22698;DHT22;11516;51.612;7.510;2023-02-18T16:10:53;10.30;99.90
22698;DHT22;11516;51.612;7.510;2023-02-18T16:13:21;10.30;99.90
22698;DHT22;11516;51.612;7.510;2023-02-18T16:15:48;10.30;99.90
22698;DHT22;11516;51.612;7.510;2023-02-18T16:18:37;10.30;99.90
22698;DHT22;11516;51.612;7.510;2023-02-18T16:23:57;10.30;99.90
22698;DHT22;11516;51.612;7.510;2023-02-18T16:26:39;10.30;99.90
22698;DHT22;11516;51.612;7.510;2023-02-18T16:29:12;10.30;99.90
22698;DHT22;11516;51.612;7.510;2023-02-18T16:31:38;10.30;99.90
22698;DHT22;11516;51.612;7.510;2023-02-18T16:34:04;10.30;99.90
22698;DHT22;11516;51.612;7.510;2023-02-18T16:36:30;10.30;99.90
22698;DHT22;11516;51.612;7.510;2023-02-18T16:38:57;10.30;99.90
22698;DHT22;11516;51.612;7.510;2023-02-18T16:41:23;10.30;99.90
22698;DHT22;11516;51.612;7.510;2023-02-18T16:43:49;10.20;99.90
22698;DHT22;11516;51.612;7.510;2023-02-18T16:46:18;10.30;99.90
22698;DHT22;11516;51.612;7.510;2023-02-18T16:48:48;10.30;99.90
22698;DHT22;11516;51.612;7.510;2023-02-18T16:51:16;10.30;99.90
22698;DHT22;11516;51.612;7.510;2023-02-18T16:53:43;10.30;99.90
22698;DHT22;11516;51.612;7.510;2023-02-18T16:56:14;10.30;99.90
22698;DHT22;11516;51.612;7.510;2023-02-18T16:58:39;10.30;99.90
22698;DHT22;11516;51.612;7.510;2023-02-18T17:01:05;10.30;99.90
22698;DHT22;11516;51.612;7.510;2023-02-18T17:03:31;10.20;99.90
22698;DHT22;11516;51.612;7.510;2023-02-18T17:05:56;10.20;99.90
22698;DHT22;11516;51.612;7.510;2023-02-18T17:08:25;10.30;99.90
22698;DHT22;11516;51.612;7.510;2023-02-18T17:10:54;10.30;99.90
22698;DHT22;11516;51.612;7.510;2023-02-18T17:13:26;10.30;99.90
22698;DHT22;11516;51.612;7.510;2023-02-18T17:15:53;10.30;99.90
22698;DHT22;11516;51.612;7.510;2023-02-18T17:18:19;10.30;99.90
22698;DHT22;11516;51.612;7.510;2023-02-18T17:20:46;10.30;99.90
22698;DHT22;11516;51.612;7.510;2023-02-18T17:23:14;10.30;99.90
22698;DHT22;11516;51.612;7.510;2023-02-18T17:25:40;10.30;99.90
22698;DHT22;11516;51.612;7.510;2023-02-18T17:28:06;10.30;99.90
22698;DHT22;11516;51.612;7.510;2023-02-18T17:30:36;10.20;99.90
22698;DHT22;11516;51.612;7.510;2023-02-18T17:33:02;10.20;99.90
22698;DHT22;11516;51.612;7.510;2023-02-18T17:35:28;10.30;99.90
22698;DHT22;11516;51.612;7.510;2023-02-18T17:37:53;10.20;99.90
22698;DHT22;11516;51.612;7.510;2023-02-18T17:40:21;10.30;99.90
22698;DHT22;11516;51.612;7.510;2023-02-18T17:42:48;10.20;99.90
22698;DHT22;11516;51.612;7.510;2023-02-18T17:45:26;10.30;99.90
22698;DHT22;11516;51.612;7.510;2023-02-18T17:47:56;10.30;99.90
22698;DHT22;11516;51.612;7.510;2023-02-18T17:50:23;10.30;99.90
22698;DHT22;11516;51.612;7.510;2023-02-18T17:52:48;10.30;99.90
22698;DHT22;11516;51.612;7.510;2023-02-18T17:57:41;10.30;99.90